Time;durP1;ratioP1;P1;durP2;ratioP2;P2;SDS_P1;SDS_P2;PMS_P1;PMS_P2;Temp;Humidity;BMP_temperature;BMP_pressure;BME280_temperature;BME280_humidity;BME280_pressure;Samples;Min_cycle;Max_cycle;Signal;HPM_P1;HPM_P2
2022/11/20 00:01:24;;;;;;;11.45;7.93;;;10.00;99.90;;;;;;5027809;28;20079;-51
2022/11/20 00:03:52;;;;;;;8.88;6.13;;;10.10;99.90;;;;;;5043570;28;20488;-51
2022/11/20 00:06:19;;;;;;;6.28;5.40;;;10.30;99.90;;;;;;5029311;28;20050;-51
2022/11/20 00:08:46;;;;;;;6.10;5.00;;;10.10;99.90;;;;;;5030979;28;20536;-52
2022/11/20 00:11:17;;;;;;;4.85;4.05;;;9.80;99.90;;;;;;5029721;28;20033;-52
2022/11/20 00:13:44;;;;;;;6.75;5.22;;;10.40;99.90;;;;;;5009159;28;20042;-52
2022/11/20 00:16:11;;;;;;;6.85;4.75;;;11.10;99.90;;;;;;5033036;28;20042;-52
2022/11/20 00:18:37;;;;;;;7.30;5.63;;;9.70;99.90;;;;;;5013361;28;20104;-51
2022/11/20 00:21:10;;;;;;;7.00;6.15;;;9.60;99.90;;;;;;5025189;28;21941;-51
2022/11/20 00:23:35;;;;;;;6.90;6.00;;;9.60;99.90;;;;;;5011774;28;20046;-52
2022/11/20 00:26:07;;;;;;;7.53;6.18;;;9.80;99.90;;;;;;5034508;28;20371;-51
2022/11/20 00:28:33;;;;;;;6.80;5.72;;;9.80;99.90;;;;;;5009431;28;20029;-52
2022/11/20 00:31:11;;;;;;;8.50;6.90;;;9.90;99.90;;;;;;5009684;28;20034;-52
2022/11/20 00:33:37;;;;;;;10.00;6.90;;;9.90;99.90;;;;;;5012309;28;20025;-51
2022/11/20 00:36:11;;;;;;;12.30;8.70;;;10.00;99.90;;;;;;5009516;28;20033;-51
2022/11/20 00:38:37;;;;;;;13.57;9.73;;;10.10;99.90;;;;;;5012211;28;20029;-52
2022/11/20 00:41:05;;;;;;;11.82;9.23;;;10.40;99.90;;;;;;5012282;28;20032;-52
2022/11/20 00:43:31;;;;;;;10.63;8.52;;;10.30;99.90;;;;;;5029808;28;20045;-51
2022/11/20 00:45:58;;;;;;;14.55;10.23;;;10.40;99.90;;;;;;5024308;28;20127;-52
2022/11/20 00:48:25;;;;;;;11.98;8.93;;;10.40;99.90;;;;;;5025068;28;20084;-51
2022/11/20 00:50:51;;;;;;;15.65;12.40;;;10.40;99.90;;;;;;5029203;28;20030;-54
2022/11/20 00:53:16;;;;;;;20.15;13.15;;;10.40;99.90;;;;;;5029057;28;20040;-51
2022/11/20 00:55:42;;;;;;;21.02;15.10;;;10.40;99.90;;;;;;5024685;28;20040;-51
2022/11/20 00:58:08;;;;;;;17.00;13.15;;;10.50;99.90;;;;;;5028937;28;20106;-51
2022/11/20 01:00:34;;;;;;;15.85;12.50;;;10.50;99.90;;;;;;5024682;28;20033;-51
2022/11/20 01:03:00;;;;;;;14.88;11.48;;;10.60;99.90;;;;;;5015858;28;20056;-51
2022/11/20 01:05:25;;;;;;;13.95;11.68;;;10.50;99.90;;;;;;5024769;28;20061;-53
2022/11/20 01:07:51;;;;;;;10.48;9.32;;;10.30;99.90;;;;;;5024833;28;20037;-52
2022/11/20 01:10:17;;;;;;;11.80;9.63;;;10.10;99.90;;;;;;5023512;28;20381;-51
2022/11/20 01:12:42;;;;;;;8.02;6.68;;;10.10;99.90;;;;;;4977096;28;20052;-51
2022/11/20 01:15:08;;;;;;;8.38;7.30;;;9.70;99.90;;;;;;5006744;28;20026;-51
2022/11/20 01:17:35;;;;;;;10.38;8.02;;;;;;;;;;5010341;28;20049;-51
2022/11/20 01:20:00;;;;;;;9.23;7.72;;;9.50;99.90;;;;;;5004635;28;20053;-51
2022/11/20 01:22:26;;;;;;;9.85;8.20;;;9.50;99.90;;;;;;5007309;28;20470;-51
2022/11/20 01:24:52;;;;;;;12.77;9.52;;;9.50;99.90;;;;;;5007286;28;20119;-51
2022/11/20 01:27:17;;;;;;;13.68;10.27;;;9.50;99.90;;;;;;5009910;28;20018;-51
2022/11/20 01:29:43;;;;;;;17.55;11.75;;;9.60;99.90;;;;;;5006738;28;20034;-51
2022/11/20 01:32:09;;;;;;;18.13;13.13;;;9.50;99.90;;;;;;5006678;28;20097;-51
2022/11/20 01:34:34;;;;;;;20.08;14.60;;;9.40;99.90;;;;;;4988452;28;20042;-51
2022/11/20 01:37:00;;;;;;;18.17;13.75;;;9.50;99.90;;;;;;5008897;28;20041;-51
2022/11/20 01:39:27;;;;;;;19.23;14.88;;;9.60;99.90;;;;;;5007728;28;20117;-51
2022/11/20 01:44:53;;;;;;;15.55;12.43;;;9.90;99.90;;;;;;5007372;28;20053;-51
2022/11/20 01:47:44;;;;;;;12.88;10.43;;;9.90;99.90;;;;;;5009947;28;20084;-51
2022/11/20 01:50:24;;;;;;;14.10;12.10;;;9.70;99.90;;;;;;5010950;28;20033;-52
2022/11/20 01:53:03;;;;;;;14.38;10.55;;;9.70;99.90;;;;;;5013022;28;20026;-52
2022/11/20 01:55:33;;;;;;;15.65;12.18;;;9.60;99.90;;;;;;5013841;28;20029;-51
2022/11/20 01:58:00;;;;;;;16.17;13.45;;;9.70;99.90;;;;;;5008323;28;20116;-51
2022/11/20 02:00:26;;;;;;;17.92;13.48;;;9.90;99.90;;;;;;5008997;28;20080;-51
2022/11/20 02:02:56;;;;;;;17.25;12.88;;;10.10;99.90;;;;;;5010197;28;20474;-51
2022/11/20 02:05:37;;;;;;;14.77;12.85;;;9.90;99.90;;;;;;5007432;28;20042;-51
2022/11/20 02:08:05;;;;;;;15.85;12.85;;;9.90;99.90;;;;;;5026101;28;20045;-51
2022/11/20 02:10:31;;;;;;;18.67;15.30;;;10.00;99.90;;;;;;5009564;28;20030;-51
2022/11/20 02:15:42;;;;;;;17.25;13.23;;;10.10;99.90;;;;;;5010154;28;20032;-51
2022/11/20 02:18:10;;;;;;;15.50;12.98;;;10.20;99.90;;;;;;5008531;28;20521;-51
2022/11/20 02:20:36;;;;;;;18.48;14.80;;;10.20;99.90;;;;;;5010311;28;20034;-51
2022/11/20 02:23:02;;;;;;;19.33;15.20;;;10.20;99.90;;;;;;5011000;28;20512;-51
2022/11/20 02:25:28;;;;;;;17.35;13.38;;;10.30;99.90;;;;;;5001877;28;20026;-51
2022/11/20 02:27:55;;;;;;;17.75;13.57;;;10.30;99.90;;;;;;5009740;28;20379;-51
2022/11/20 02:30:20;;;;;;;17.33;14.27;;;10.20;99.90;;;;;;5005064;28;20030;-51
2022/11/20 02:32:46;;;;;;;15.55;12.27;;;10.20;99.90;;;;;;5011896;28;20030;-51
2022/11/20 02:35:18;;;;;;;15.98;12.57;;;10.10;99.90;;;;;;5009914;28;20033;-51
2022/11/20 02:37:44;;;;;;;16.45;12.10;;;10.20;99.90;;;;;;5008211;28;20439;-51
2022/11/20 02:40:10;;;;;;;16.23;13.02;;;10.20;99.90;;;;;;5012618;28;20040;-52
2022/11/20 02:42:37;;;;;;;18.02;14.02;;;10.30;99.90;;;;;;5010627;28;20030;-51
2022/11/20 02:45:04;;;;;;;16.23;13.48;;;10.30;99.90;;;;;;5012678;28;20079;-51
2022/11/20 02:47:30;;;;;;;17.17;13.48;;;10.30;99.90;;;;;;5009244;28;20058;-51
2022/11/20 02:49:56;;;;;;;16.10;12.93;;;10.30;99.90;;;;;;5010943;28;20112;-51
2022/11/20 02:52:22;;;;;;;19.17;15.00;;;10.40;99.90;;;;;;5012003;28;20053;-52
2022/11/20 02:54:47;;;;;;;15.70;12.93;;;10.40;99.90;;;;;;5009265;28;20034;-51
2022/11/20 02:57:13;;;;;;;15.52;11.55;;;10.30;99.90;;;;;;5028907;28;20073;-51
2022/11/20 02:59:39;;;;;;;16.73;12.32;;;10.20;99.90;;;;;;5009271;28;20034;-53
2022/11/20 03:02:05;;;;;;;16.02;11.77;;;10.00;99.90;;;;;;5012654;28;20085;-51
2022/11/20 03:04:30;;;;;;;16.25;11.63;;;9.90;99.90;;;;;;5006943;28;20046;-51
2022/11/20 03:06:56;;;;;;;14.88;12.15;;;9.70;99.90;;;;;;5008541;28;20030;-51
2022/11/20 03:09:22;;;;;;;15.73;11.50;;;9.60;99.90;;;;;;5008559;28;20362;-51
2022/11/20 03:11:48;;;;;;;16.77;11.00;;;9.50;99.90;;;;;;5027748;28;20044;-51
2022/11/20 03:14:14;;;;;;;16.48;12.45;;;9.50;99.90;;;;;;5006285;28;20474;-51
2022/11/20 03:16:40;;;;;;;16.85;12.95;;;9.70;99.90;;;;;;5014075;28;20022;-52
2022/11/20 03:19:06;;;;;;;15.88;12.40;;;9.90;99.90;;;;;;5011037;28;20533;-51
2022/11/20 03:21:35;;;;;;;18.45;14.35;;;10.00;99.90;;;;;;5008287;28;20050;-52
2022/11/20 03:24:01;;;;;;;15.32;12.02;;;10.10;99.90;;;;;;5005524;28;20490;-51
2022/11/20 03:26:28;;;;;;;16.00;12.30;;;10.10;99.90;;;;;;5041830;28;20490;-51
2022/11/20 03:28:59;;;;;;;18.88;13.13;;;10.20;99.90;;;;;;5010893;28;20105;-51
2022/11/20 03:31:31;;;;;;;16.48;12.05;;;9.90;99.90;;;;;;5007083;28;20034;-51
2022/11/20 03:33:58;;;;;;;20.73;13.98;;;10.00;99.90;;;;;;5012481;28;20033;-51
2022/11/20 03:36:24;;;;;;;22.80;14.93;;;9.90;99.90;;;;;;5007129;28;20042;-51
2022/11/20 03:38:50;;;;;;;16.55;13.10;;;9.80;99.90;;;;;;5005683;28;20105;-51
2022/11/20 03:41:27;;;;;;;16.13;11.63;;;9.80;99.90;;;;;;5008354;28;20114;-51
2022/11/20 03:43:55;;;;;;;15.65;12.82;;;9.60;99.90;;;;;;5011692;28;20044;-51
2022/11/20 03:46:21;;;;;;;18.02;13.07;;;9.60;99.90;;;;;;5008793;28;20030;-51
2022/11/20 03:48:47;;;;;;;20.83;14.93;;;9.60;99.90;;;;;;5004542;28;20100;-51
2022/11/20 03:51:25;;;;;;;21.50;14.95;;;9.50;99.90;;;;;;5006291;28;20083;-51
2022/11/20 03:53:53;;;;;;;19.80;13.05;;;9.40;99.90;;;;;;5011476;28;20100;-51
2022/11/20 03:56:22;;;;;;;16.58;11.68;;;9.20;99.90;;;;;;5010624;28;20049;-51
2022/11/20 03:58:48;;;;;;;19.38;13.48;;;9.20;99.90;;;;;;5009429;28;20216;-52
2022/11/20 04:01:25;;;;;;;18.80;13.48;;;9.20;99.90;;;;;;5011295;28;20026;-51
2022/11/20 04:03:53;;;;;;;17.20;12.13;;;9.20;99.90;;;;;;5010071;28;20065;-51
2022/11/20 04:06:36;;;;;;;13.57;9.50;;;9.10;99.90;;;;;;5006435;28;20077;-51
2022/11/20 04:09:01;;;;;;;18.27;12.35;;;9.00;99.90;;;;;;5009851;28;20052;-51
2022/11/20 04:11:29;;;;;;;17.38;11.50;;;9.00;99.90;;;;;;5006183;28;20486;-51
2022/11/20 04:13:58;;;;;;;18.83;12.40;;;9.10;99.90;;;;;;5011946;28;20445;-51
2022/11/20 04:16:25;;;;;;;18.80;11.95;;;9.00;99.90;;;;;;5007286;28;20022;-51
2022/11/20 04:18:55;;;;;;;18.00;12.57;;;8.90;99.90;;;;;;5008913;28;20030;-51
2022/11/20 04:21:22;;;;;;;17.90;11.60;;;8.90;99.90;;;;;;5034234;28;20034;-51
2022/11/20 04:23:48;;;;;;;16.73;9.85;;;8.90;99.90;;;;;;5016362;28;20690;-52
2022/11/20 04:26:14;;;;;;;17.02;12.63;;;8.80;99.90;;;;;;5045545;28;20033;-51
2022/11/20 04:28:40;;;;;;;17.75;11.82;;;8.80;99.90;;;;;;5031026;28;20374;-53
2022/11/20 04:31:08;;;;;;;16.23;10.93;;;8.90;99.90;;;;;;5047293;28;20040;-51
2022/11/20 04:33:35;;;;;;;15.00;9.70;;;8.90;99.90;;;;;;5041499;28;20055;-51
2022/11/20 04:36:05;;;;;;;17.13;11.95;;;8.80;99.90;;;;;;5045125;28;20037;-51
2022/11/20 04:38:31;;;;;;;15.63;10.75;;;8.90;99.90;;;;;;5046954;28;20025;-52
2022/11/20 04:40:59;;;;;;;14.13;10.30;;;8.90;99.90;;;;;;5045334;28;20041;-51
2022/11/20 04:43:25;;;;;;;14.10;10.57;;;8.90;99.90;;;;;;5045860;28;20041;-52
2022/11/20 04:45:52;;;;;;;13.57;9.63;;;8.90;99.90;;;;;;5043407;28;20112;-52
2022/11/20 04:48:17;;;;;;;11.45;7.93;;;9.00;99.90;;;;;;5046442;28;20036;-51
2022/11/20 04:50:43;;;;;;;12.10;8.52;;;8.90;99.90;;;;;;5030139;28;20033;-51
2022/11/20 04:53:09;;;;;;;13.63;8.70;;;8.90;99.90;;;;;;5014385;28;20050;-52
2022/11/20 04:55:34;;;;;;;11.18;8.25;;;8.90;99.90;;;;;;5023017;28;20038;-51
2022/11/20 04:58:00;;;;;;;11.10;8.63;;;8.90;99.90;;;;;;4994279;28;20042;-51
2022/11/20 05:00:26;;;;;;;13.70;8.63;;;8.90;99.90;;;;;;5038886;28;20034;-51
2022/11/20 05:02:51;;;;;;;13.27;9.10;;;8.90;99.90;;;;;;5006816;28;20374;-52
2022/11/20 05:05:18;;;;;;;13.07;9.25;;;8.90;99.90;;;;;;5008680;28;20053;-51
2022/11/20 05:07:43;;;;;;;11.63;9.10;;;9.00;99.90;;;;;;5027352;28;20030;-51
2022/11/20 05:10:09;;;;;;;13.23;9.57;;;8.90;99.90;;;;;;5042533;28;20125;-51
2022/11/20 05:12:35;;;;;;;16.55;10.23;;;8.90;99.90;;;;;;5007226;28;20041;-51
2022/11/20 05:18:22;;;;;;;22.43;13.53;;;9.00;99.90;;;;;;5008921;28;20120;-51
2022/11/20 05:20:55;;;;;;;19.55;12.10;;;9.00;99.90;;;;;;5038936;28;20046;-51
2022/11/20 05:23:20;;;;;;;16.33;11.60;;;9.10;99.90;;;;;;5004259;28;20474;-51
2022/11/20 05:25:46;;;;;;;13.57;10.18;;;9.10;99.90;;;;;;5006275;28;20022;-51
2022/11/20 05:28:12;;;;;;;14.35;9.10;;;9.10;99.90;;;;;;5010163;28;20037;-51
2022/11/20 05:30:37;;;;;;;15.15;10.43;;;9.00;99.90;;;;;;5026415;28;20445;-51
2022/11/20 05:33:03;;;;;;;16.30;10.10;;;8.90;99.90;;;;;;5003835;28;20030;-51
2022/11/20 05:35:29;;;;;;;14.68;10.05;;;9.10;99.90;;;;;;5006643;28;20105;-51
2022/11/20 05:37:54;;;;;;;13.82;8.85;;;9.10;99.90;;;;;;5010095;28;20053;-51
2022/11/20 05:40:20;;;;;;;13.38;9.55;;;8.90;99.90;;;;;;5009512;28;20056;-51
2022/11/20 05:42:46;;;;;;;17.00;12.02;;;9.00;99.90;;;;;;5009313;28;20399;-51
2022/11/20 05:45:11;;;;;;;21.90;12.93;;;9.10;99.90;;;;;;5011751;28;20071;-51
2022/11/20 05:47:37;;;;;;;21.90;16.42;;;9.10;99.90;;;;;;5008659;28;20077;-51
2022/11/20 05:50:03;;;;;;;10.35;7.55;;;9.10;99.90;;;;;;5025754;28;20049;-52
2022/11/20 05:52:29;;;;;;;17.65;14.15;;;9.10;99.90;;;;;;5021479;28;20030;-51
2022/11/20 05:54:56;;;;;;;33.90;22.98;;;9.00;99.90;;;;;;5006626;28;20394;-51
2022/11/20 05:57:21;;;;;;;26.58;18.15;;;9.10;99.90;;;;;;5008152;28;20123;-51
2022/11/20 05:59:47;;;;;;;23.85;16.42;;;9.10;99.90;;;;;;5007980;28;20505;-52
2022/11/20 06:02:13;;;;;;;20.83;15.77;;;9.00;99.90;;;;;;5006458;28;20042;-53
2022/11/20 06:04:39;;;;;;;20.08;12.68;;;9.10;99.90;;;;;;5010599;28;20115;-51
2022/11/20 06:07:05;;;;;;;17.15;10.35;;;9.20;99.90;;;;;;5008033;28;20026;-51
2022/11/20 06:09:31;;;;;;;12.00;8.02;;;9.10;99.90;;;;;;5008685;28;20022;-51
2022/11/20 06:11:57;;;;;;;10.75;7.70;;;9.20;99.90;;;;;;5022909;28;20489;-51
2022/11/20 06:14:22;;;;;;;10.40;7.53;;;9.20;99.90;;;;;;5025233;28;20448;-51
2022/11/20 06:16:48;;;;;;;11.40;6.95;;;9.30;99.90;;;;;;5006000;28;20387;-52
2022/11/20 06:19:14;;;;;;;12.93;7.95;;;9.40;99.90;;;;;;5005619;28;20454;-51
2022/11/20 06:21:40;;;;;;;9.93;7.65;;;9.40;99.90;;;;;;5040624;28;20121;-52
2022/11/20 06:24:08;;;;;;;10.52;7.97;;;9.60;99.90;;;;;;5009008;28;20070;-51
2022/11/20 06:26:34;;;;;;;8.85;6.85;;;9.60;99.90;;;;;;5007106;28;20029;-52
2022/11/20 06:28:59;;;;;;;10.38;6.43;;;9.50;99.90;;;;;;5002088;28;20038;-51
2022/11/20 06:31:26;;;;;;;11.45;7.20;;;9.70;99.90;;;;;;5009344;28;20041;-52
2022/11/20 06:33:52;;;;;;;10.40;7.95;;;9.70;99.90;;;;;;5012644;28;20053;-51
2022/11/20 06:36:20;;;;;;;9.82;7.10;;;9.80;99.90;;;;;;5014088;28;20394;-52
2022/11/20 06:38:46;;;;;;;10.77;9.20;;;9.70;99.90;;;;;;5006172;28;20494;-51
2022/11/20 06:41:17;;;;;;;14.63;9.98;;;9.70;99.90;;;;;;5007556;28;20117;-51
2022/11/20 06:43:43;;;;;;;16.43;11.03;;;9.60;99.90;;;;;;5008765;28;20038;-51
2022/11/20 06:46:11;;;;;;;14.85;11.23;;;9.60;99.90;;;;;;5013681;28;20738;-52
2022/11/20 06:48:37;;;;;;;13.77;10.05;;;9.70;99.90;;;;;;5021712;28;20034;-51
2022/11/20 06:51:04;;;;;;;16.85;11.60;;;9.80;99.90;;;;;;5011840;28;20493;-51
2022/11/20 06:53:30;;;;;;;18.65;12.98;;;9.70;99.90;;;;;;5009344;28;20390;-51
2022/11/20 06:55:59;;;;;;;13.10;8.50;;;9.60;99.90;;;;;;5015327;28;20033;-51
2022/11/20 06:58:30;;;;;;;12.77;10.35;;;9.30;99.90;;;;;;5006011;28;20028;-52
2022/11/20 07:01:03;;;;;;;14.93;10.43;;;9.30;99.90;;;;;;5006417;28;20038;-51
2022/11/20 07:03:29;;;;;;;13.70;10.10;;;9.40;99.90;;;;;;5010039;28;20042;-51
2022/11/20 07:05:56;;;;;;;17.75;12.80;;;9.30;99.90;;;;;;5012449;28;20140;-53
2022/11/20 07:08:22;;;;;;;16.10;11.90;;;9.40;99.90;;;;;;5004352;28;20030;-53
2022/11/20 07:10:48;;;;;;;16.08;10.98;;;9.60;99.90;;;;;;5011719;28;20022;-51
2022/11/20 07:13:14;;;;;;;14.60;11.05;;;9.70;99.90;;;;;;5008367;28;20036;-52
2022/11/20 07:15:39;;;;;;;16.70;11.18;;;9.60;99.90;;;;;;5011530;28;20030;-53
2022/11/20 07:18:05;;;;;;;15.75;10.50;;;9.60;99.90;;;;;;5028408;28;20042;-51
2022/11/20 07:20:31;;;;;;;12.68;9.45;;;9.50;99.90;;;;;;5005199;28;20111;-52
2022/11/20 07:22:57;;;;;;;12.88;9.65;;;9.40;99.90;;;;;;5031142;28;20046;-52
2022/11/20 07:25:25;;;;;;;11.45;8.68;;;9.40;99.90;;;;;;5002525;28;20026;-51
2022/11/20 07:27:51;;;;;;;15.30;10.63;;;9.30;99.90;;;;;;5001571;28;20069;-51
2022/11/20 07:30:17;;;;;;;16.25;11.27;;;9.50;99.90;;;;;;5004989;28;20594;-52
2022/11/20 07:32:46;;;;;;;16.27;12.30;;;9.50;99.90;;;;;;5012268;28;20036;-52
2022/11/20 07:35:13;;;;;;;14.80;11.48;;;9.70;99.90;;;;;;5010083;28;20486;-52
2022/11/20 07:37:38;;;;;;;12.40;9.15;;;9.70;99.90;;;;;;4993613;28;20033;-51
2022/11/20 07:40:24;;;;;;;13.52;10.18;;;9.60;99.90;;;;;;5011225;28;20029;-51
2022/11/20 07:42:52;;;;;;;16.55;13.82;;;9.40;99.90;;;;;;4971034;28;20450;-51
2022/11/20 07:45:19;;;;;;;14.10;12.43;;;9.50;99.90;;;;;;4974358;28;20542;-51
2022/11/20 07:47:44;;;;;;;11.02;9.10;;;9.80;99.90;;;;;;4973759;28;20094;-51
2022/11/20 07:50:11;;;;;;;12.10;9.75;;;9.80;99.90;;;;;;4960767;28;20030;-51
2022/11/20 07:52:37;;;;;;;17.08;13.70;;;10.00;99.90;;;;;;4970126;28;20042;-51
2022/11/20 07:55:03;;;;;;;23.75;19.10;;;10.10;99.90;;;;;;4973665;28;20035;-51
2022/11/20 07:57:28;;;;;;;11.27;9.90;;;10.20;99.90;;;;;;4969613;28;20043;-51
2022/11/20 07:59:54;;;;;;;11.27;8.65;;;10.00;99.90;;;;;;5011257;28;20050;-52
2022/11/20 08:02:20;;;;;;;12.55;9.07;;;10.00;99.90;;;;;;5012442;28;20045;-51
2022/11/20 08:04:45;;;;;;;10.45;7.38;;;10.10;99.90;;;;;;4967864;28;20049;-51
2022/11/20 08:07:11;;;;;;;11.50;7.68;;;10.10;99.90;;;;;;5014024;28;20033;-52
2022/11/20 08:09:37;;;;;;;12.07;8.10;;;10.20;99.90;;;;;;5012278;28;20129;-53
2022/11/20 08:14:47;;;;;;;16.40;10.20;;;9.90;99.90;;;;;;4976439;28;20129;-52
2022/11/20 08:17:12;;;;;;;22.73;14.43;;;10.00;99.90;;;;;;5007217;28;20050;-53
2022/11/20 08:19:39;;;;;;;16.60;11.73;;;9.80;99.90;;;;;;5008863;28;20054;-53
2022/11/20 08:22:05;;;;;;;12.55;9.65;;;9.90;99.90;;;;;;5010154;28;20032;-52
2022/11/20 08:24:31;;;;;;;15.40;10.77;;;10.10;99.90;;;;;;5006976;28;20049;-52
2022/11/20 08:27:00;;;;;;;18.88;13.80;;;10.20;99.90;;;;;;5008040;28;20541;-50
2022/11/20 08:29:29;;;;;;;20.33;13.00;;;10.30;99.90;;;;;;5001865;28;20030;-53
2022/11/20 08:31:54;;;;;;;17.00;10.57;;;10.30;99.90;;;;;;5010529;28;20038;-54
2022/11/20 08:34:20;;;;;;;13.55;9.63;;;10.00;99.90;;;;;;5005176;28;20359;-53
2022/11/20 08:36:46;;;;;;;15.95;11.73;;;10.10;99.90;;;;;;5010196;28;20108;-54
2022/11/20 08:39:12;;;;;;;14.35;10.95;;;10.20;99.90;;;;;;5005543;28;20060;-55
2022/11/20 08:41:38;;;;;;;13.82;10.50;;;10.20;99.90;;;;;;5011060;28;20026;-53
2022/11/20 08:44:06;;;;;;;15.55;10.32;;;10.30;99.90;;;;;;5009380;28;20045;-55
2022/11/20 08:46:37;;;;;;;12.73;10.25;;;10.40;99.90;;;;;;5008326;28;20041;-54
2022/11/20 08:49:08;;;;;;;18.25;12.93;;;10.50;99.90;;;;;;5027411;28;20124;-51
2022/11/20 08:51:35;;;;;;;28.15;17.02;;;10.50;99.90;;;;;;5020904;28;20042;-52
2022/11/20 08:54:00;;;;;;;35.70;20.85;;;10.60;99.90;;;;;;5027820;28;20417;-49
2022/11/20 08:56:26;;;;;;;107.25;43.40;;;10.40;99.90;;;;;;5025759;28;20038;-50
2022/11/20 08:58:52;;;;;;;53.80;28.27;;;10.10;99.90;;;;;;5019053;28;20033;-48
2022/11/20 09:01:20;;;;;;;33.50;24.75;;;10.00;99.90;;;;;;4990667;28;20076;-48
2022/11/20 09:03:46;;;;;;;25.05;17.15;;;9.80;99.90;;;;;;5019658;28;20068;-48
2022/11/20 09:06:12;;;;;;;12.00;9.60;;;9.50;99.90;;;;;;5017144;28;20103;-48
2022/11/20 09:08:38;;;;;;;11.45;8.80;;;9.50;99.90;;;;;;5024368;28;20030;-50
2022/11/20 09:11:04;;;;;;;11.30;8.52;;;9.50;99.90;;;;;;4990331;28;20045;-48
2022/11/20 09:13:31;;;;;;;199.07;106.53;;;9.40;99.90;;;;;;5026431;28;20038;-48
2022/11/20 09:15:59;;;;;;;25.42;17.27;;;9.40;99.90;;;;;;5021524;28;20429;-48
2022/11/20 09:18:26;;;;;;;29.48;20.38;;;9.30;99.90;;;;;;5005496;28;20042;-51
2022/11/20 09:20:55;;;;;;;33.15;24.80;;;9.30;99.90;;;;;;5003537;28;20050;-54
2022/11/20 09:23:21;;;;;;;130.35;96.88;;;9.20;99.90;;;;;;5005585;28;20129;-48
2022/11/20 09:25:47;;;;;;;39.10;33.60;;;9.70;99.90;;;;;;5008522;28;20120;-50
2022/11/20 09:28:13;;;;;;;9.73;7.75;;;9.30;99.90;;;;;;5009359;28;20034;-59
2022/11/20 09:30:38;;;;;;;10.82;8.10;;;9.00;99.90;;;;;;5004430;28;20440;-54
2022/11/20 09:33:05;;;;;;;14.07;10.70;;;9.00;99.90;;;;;;5005754;28;20112;-54
2022/11/20 09:35:32;;;;;;;18.33;11.93;;;9.00;99.90;;;;;;5005871;28;20034;-53
2022/11/20 09:37:57;;;;;;;23.38;16.75;;;9.00;99.90;;;;;;4993877;28;20037;-53
2022/11/20 09:40:27;;;;;;;13.85;11.20;;;9.10;99.90;;;;;;5004528;28;20026;-51
2022/11/20 09:43:23;;;;;;;13.93;10.88;;;9.10;99.90;;;;;;5007383;28;20128;-51
2022/11/20 09:45:58;;;;;;;39.50;32.65;;;9.30;99.90;;;;;;5039605;28;20046;-48
2022/11/20 09:48:48;;;;;;;14.93;12.20;;;9.30;99.90;;;;;;5004764;28;20034;-53
2022/11/20 09:51:32;;;;;;;69.60;54.08;;;9.20;99.90;;;;;;5002600;28;20036;-52
2022/11/20 09:54:14;;;;;;;13.23;10.32;;;9.50;99.90;;;;;;5007385;28;20034;-53
2022/11/20 09:56:48;;;;;;;27.80;24.88;;;9.60;99.90;;;;;;5010976;28;20026;-55
2022/11/20 09:59:24;;;;;;;16.38;13.20;;;9.60;99.90;;;;;;5010064;28;20049;-51
2022/11/20 10:01:50;;;;;;;22.95;18.05;;;9.50;99.90;;;;;;5007128;28;20057;-52
2022/11/20 10:04:20;;;;;;;35.03;31.10;;;9.40;99.90;;;;;;5003812;28;20135;-51
2022/11/20 10:07:07;;;;;;;19.77;16.15;;;9.40;99.90;;;;;;5007517;28;20029;-52
2022/11/20 10:09:37;;;;;;;42.92;36.08;;;9.30;99.90;;;;;;5010823;28;20548;-53
2022/11/20 10:12:23;;;;;;;23.92;18.17;;;9.30;99.90;;;;;;4992312;28;20057;-51
2022/11/20 10:15:17;;;;;;;43.33;34.42;;;9.50;99.90;;;;;;5010755;28;20069;-54
2022/11/20 10:17:59;;;;;;;21.95;18.20;;;9.40;99.90;;;;;;5012373;28;20059;-52
2022/11/20 10:20:33;;;;;;;16.23;9.48;;;9.50;99.90;;;;;;5010518;28;20037;-54
2022/11/20 10:23:17;;;;;;;12.07;9.18;;;9.50;99.90;;;;;;5012580;28;20049;-52
2022/11/20 10:25:47;;;;;;;17.60;14.10;;;9.70;99.90;;;;;;5012774;28;20057;-54
2022/11/20 10:28:27;;;;;;;14.82;11.30;;;9.70;99.90;;;;;;5013576;28;20057;-54
2022/11/20 10:31:00;;;;;;;15.90;10.13;;;9.80;99.90;;;;;;5009837;28;20049;-53
2022/11/20 10:33:32;;;;;;;23.60;17.83;;;9.80;99.90;;;;;;5008658;28;20046;-60
2022/11/20 10:36:14;;;;;;;12.10;7.95;;;10.00;99.90;;;;;;4996448;28;20046;-56
2022/11/20 10:39:06;;;;;;;12.75;11.02;;;9.70;99.90;;;;;;5011369;28;20045;-51
2022/11/20 10:41:38;;;;;;;15.57;11.63;;;9.80;99.90;;;;;;5012016;28;20379;-59
2022/11/20 10:47:05;;;;;;;14.25;9.50;;;9.80;99.90;;;;;;5010373;28;20037;-52
2022/11/20 10:49:32;;;;;;;19.35;13.30;;;9.80;99.90;;;;;;5003024;28;20026;-53
2022/11/20 10:52:21;;;;;;;17.63;12.02;;;10.00;99.90;;;;;;5004284;28;20052;-51
2022/11/20 10:54:47;;;;;;;14.93;10.63;;;9.80;99.90;;;;;;5051805;28;20189;-52
2022/11/20 10:57:38;;;;;;;16.50;11.52;;;9.50;99.90;;;;;;5010466;28;20034;-53
2022/11/20 11:00:09;;;;;;;13.80;10.60;;;9.40;99.90;;;;;;5007651;28;20042;-53
2022/11/20 11:02:40;;;;;;;15.85;11.65;;;9.30;99.90;;;;;;5007322;28;20045;-53
2022/11/20 11:05:37;;;;;;;8.95;6.25;;;9.40;99.90;;;;;;5009001;28;20402;-55
2022/11/20 11:08:04;;;;;;;15.30;10.98;;;9.00;99.90;;;;;;5002766;28;20033;-55
2022/11/20 11:10:41;;;;;;;13.55;9.90;;;;;;;;;;5007645;28;20038;-55
2022/11/20 11:13:07;;;;;;;13.18;9.60;;;;;;;;;;5005412;28;20033;-56
2022/11/20 11:15:40;;;;;;;11.75;7.78;;;9.00;99.90;;;;;;5008100;28;20036;-54
2022/11/20 11:18:10;;;;;;;11.32;7.68;;;9.10;99.90;;;;;;5020533;28;20049;-54
2022/11/20 11:20:38;;;;;;;12.18;8.48;;;9.00;99.90;;;;;;5026030;28;20041;-54
2022/11/20 11:23:04;;;;;;;17.70;10.48;;;8.80;99.90;;;;;;5002443;28;20518;-54
2022/11/20 11:25:34;;;;;;;13.88;9.15;;;9.00;99.90;;;;;;5007406;28;20121;-54
2022/11/20 11:28:21;;;;;;;12.98;8.20;;;9.00;99.90;;;;;;5011300;28;20562;-53
2022/11/20 11:30:49;;;;;;;12.88;7.50;;;9.00;99.90;;;;;;5008802;28;20037;-52
2022/11/20 11:33:25;;;;;;;9.00;6.75;;;;;;;;;;5023351;28;20042;-53
2022/11/20 11:36:19;;;;;;;10.65;7.30;;;9.30;99.90;;;;;;5010706;28;20034;-53
2022/11/20 11:38:45;;;;;;;11.50;7.88;;;9.40;99.90;;;;;;5010502;28;20049;-53
2022/11/20 11:41:37;;;;;;;10.88;7.97;;;9.40;99.90;;;;;;5011662;28;20037;-52
2022/11/20 11:47:43;;;;;;;11.80;7.70;;;8.90;99.90;;;;;;4995510;28;20107;-54
2022/11/20 11:50:08;;;;;;;10.52;7.03;;;8.80;99.90;;;;;;5007689;28;20431;-54
2022/11/20 11:52:56;;;;;;;7.13;3.80;;;8.80;99.90;;;;;;5003244;28;20022;-55
2022/11/20 11:55:43;;;;;;;9.88;6.00;;;8.60;99.90;;;;;;5009032;28;20056;-55
2022/11/20 11:58:12;;;;;;;11.82;7.22;;;;;;;;;;5008811;28;20033;-54
2022/11/20 12:00:41;;;;;;;12.50;7.47;;;8.30;99.90;;;;;;5009207;28;20500;-54
2022/11/20 12:03:18;;;;;;;10.48;7.30;;;8.30;99.90;;;;;;5010015;28;20038;-56
2022/11/20 12:05:48;;;;;;;14.65;9.85;;;8.20;99.90;;;;;;5012176;28;20030;-55
2022/11/20 12:08:44;;;;;;;14.50;9.57;;;8.40;99.90;;;;;;5011382;28;20036;-55
2022/11/20 12:11:23;;;;;;;12.45;9.20;;;8.60;99.90;;;;;;5019704;28;20064;-55
2022/11/20 12:14:09;;;;;;;15.65;9.40;;;8.40;99.90;;;;;;5007766;28;20026;-53
2022/11/20 12:16:37;;;;;;;13.10;9.63;;;8.40;99.90;;;;;;5005158;28;20117;-49
2022/11/20 12:19:11;;;;;;;13.85;9.18;;;8.50;99.90;;;;;;5022752;28;20200;-50
2022/11/20 12:22:13;;;;;;;13.50;10.02;;;8.40;99.90;;;;;;5023568;28;20136;-54
2022/11/20 12:25:00;;;;;;;22.38;15.38;;;8.20;99.90;;;;;;5023159;28;20045;-50
2022/11/20 12:27:44;;;;;;;18.20;12.10;;;8.40;99.90;;;;;;5021776;28;20481;-51
2022/11/20 12:30:21;;;;;;;14.90;9.77;;;8.40;99.90;;;;;;5006161;28;20042;-51
2022/11/20 12:33:04;;;;;;;13.45;9.68;;;8.40;99.90;;;;;;5023243;28;20017;-51
2022/11/20 12:35:52;;;;;;;25.50;17.50;;;8.40;99.90;;;;;;5027960;28;20025;-52
2022/11/20 12:38:48;;;;;;;21.95;15.35;;;8.20;99.90;;;;;;5022222;28;20022;-51
2022/11/20 12:47:32;;;;;;;84.25;53.97;;;;;;;;;;5019618;28;20438;-52
2022/11/20 12:50:20;;;;;;;45.42;28.58;;;8.10;99.90;;;;;;5009747;28;20438;-52
2022/11/20 12:52:55;;;;;;;34.92;24.83;;;;;;;;;;5008253;28;20054;-52
2022/11/20 12:55:55;;;;;;;25.20;18.95;;;8.20;99.90;;;;;;5021095;28;20437;-58
2022/11/20 12:58:30;;;;;;;32.60;22.15;;;8.00;99.90;;;;;;5006361;28;20042;-48
2022/11/20 13:01:40;;;;;;;22.67;15.38;;;8.30;99.90;;;;;;5005238;28;20117;-51
2022/11/20 13:04:45;;;;;;;22.00;15.77;;;8.30;99.90;;;;;;5001969;28;20425;-50
2022/11/20 13:07:14;;;;;;;18.73;14.30;;;8.40;99.90;;;;;;5021101;28;20393;-52
2022/11/20 13:09:48;;;;;;;22.40;15.07;;;8.50;99.90;;;;;;5006732;28;20095;-59
2022/11/20 13:12:51;;;;;;;23.73;16.58;;;8.40;99.90;;;;;;5008859;28;20026;-52
2022/11/20 13:15:35;;;;;;;;;;;8.50;99.90;;;;;;5008287;28;20115;-51
2022/11/20 13:18:05;;;;;;;22.20;14.98;;;8.60;99.90;;;;;;4995972;28;19933;-52
2022/11/20 13:20:33;;;;;;;18.77;13.90;;;8.50;99.90;;;;;;4999440;28;20034;-48